createdAt,value
2018-03-24T00:01:16.210Z,8.40
2018-03-24T00:03:41.992Z,8.00
2018-03-24T00:06:07.747Z,7.20
2018-03-24T00:08:33.489Z,8.03
2018-03-24T00:10:59.249Z,7.40
2018-03-24T00:13:25.000Z,6.83
2018-03-24T00:15:50.753Z,7.73
2018-03-24T00:18:16.526Z,7.60
2018-03-24T00:20:42.348Z,7.00
2018-03-24T00:23:08.100Z,7.30
2018-03-24T00:25:34.225Z,7.57
2018-03-24T00:27:59.991Z,7.67
2018-03-24T00:30:25.745Z,7.80
2018-03-24T00:32:51.513Z,7.57
2018-03-24T00:35:17.297Z,7.23
2018-03-24T00:37:43.049Z,7.40
2018-03-24T00:40:08.829Z,8.43
2018-03-24T00:42:34.601Z,7.70
2018-03-24T00:45:00.365Z,7.77
2018-03-24T00:47:26.131Z,8.23
2018-03-24T00:50:07.178Z,6.80
2018-03-24T00:52:33.019Z,8.30
2018-03-24T00:54:58.744Z,8.80
2018-03-24T00:57:24.504Z,8.57
2018-03-24T00:59:50.275Z,7.70
2018-03-24T01:02:16.029Z,8.17
2018-03-24T01:04:41.790Z,9.00
2018-03-24T01:07:07.552Z,8.60
2018-03-24T01:09:33.305Z,9.80
2018-03-24T01:11:59.077Z,8.93
2018-03-24T01:14:24.837Z,7.83
2018-03-24T01:16:50.591Z,9.13
2018-03-24T01:19:16.368Z,8.03
2018-03-24T01:21:42.133Z,8.10
2018-03-24T01:24:08.321Z,7.90
2018-03-24T01:26:34.093Z,8.33
2018-03-24T01:28:59.862Z,7.60
2018-03-24T01:31:25.616Z,7.30
2018-03-24T01:33:51.397Z,8.23
2018-03-24T01:36:17.186Z,7.80
2018-03-24T01:38:42.953Z,7.50
2018-03-24T01:41:09.046Z,8.83
2018-03-24T01:43:34.817Z,6.50
2018-03-24T01:46:00.581Z,7.90
2018-03-24T01:48:26.365Z,7.40
2018-03-24T01:50:52.121Z,7.10
2018-03-24T01:53:17.936Z,7.20
2018-03-24T01:55:43.717Z,7.47
2018-03-24T01:58:10.090Z,7.83
2018-03-24T02:00:35.846Z,6.90
2018-03-24T02:03:01.648Z,8.43
2018-03-24T02:05:27.385Z,7.57
2018-03-24T02:07:53.166Z,8.37
2018-03-24T02:10:18.963Z,7.60
2018-03-24T02:12:44.713Z,8.07
2018-03-24T02:15:10.469Z,7.90
2018-03-24T02:17:36.254Z,7.10
2018-03-24T02:20:02.043Z,6.93
2018-03-24T02:22:28.262Z,8.37
2018-03-24T02:24:56.814Z,8.00
2018-03-24T02:27:22.576Z,7.57
2018-03-24T02:29:48.353Z,8.90
2018-03-24T02:32:14.174Z,9.10
2018-03-24T02:34:39.931Z,8.50
2018-03-24T02:37:05.718Z,8.73
2018-03-24T02:39:31.485Z,7.70
2018-03-24T02:41:57.272Z,7.80
2018-03-24T02:44:23.021Z,7.63
2018-03-24T02:46:48.791Z,9.47
2018-03-24T02:49:14.541Z,9.00
2018-03-24T02:51:40.280Z,8.10
2018-03-24T02:54:06.389Z,8.83
2018-03-24T02:56:32.145Z,9.07
2018-03-24T02:58:57.907Z,8.90
2018-03-24T03:01:23.693Z,8.70
2018-03-24T03:03:49.440Z,8.80
2018-03-24T03:06:15.213Z,9.33
2018-03-24T03:08:40.977Z,8.87
2018-03-24T03:11:06.753Z,8.93
2018-03-24T03:13:32.576Z,8.00
2018-03-24T03:15:58.336Z,11.00
2018-03-24T03:18:24.986Z,8.30
2018-03-24T03:20:51.112Z,8.60
2018-03-24T03:23:16.888Z,8.53
2018-03-24T03:25:42.672Z,10.90
2018-03-24T03:28:08.451Z,8.40
2018-03-24T03:30:38.190Z,8.83
2018-03-24T03:33:04.015Z,8.00
2018-03-24T03:35:29.734Z,10.23
2018-03-24T03:37:55.825Z,8.17
2018-03-24T03:40:21.581Z,9.20
2018-03-24T03:42:47.334Z,8.70
2018-03-24T03:45:13.117Z,9.67
2018-03-24T03:47:38.869Z,10.37
2018-03-24T03:50:04.637Z,9.50
2018-03-24T03:52:30.437Z,10.30
2018-03-24T03:54:56.559Z,10.83
2018-03-24T03:57:22.324Z,8.63
2018-03-24T03:59:48.117Z,9.30
2018-03-24T04:02:13.874Z,8.90
2018-03-24T04:04:39.642Z,9.73
2018-03-24T04:07:05.404Z,8.83
2018-03-24T04:09:31.165Z,11.53
2018-03-24T04:11:56.966Z,9.80
2018-03-24T04:14:22.724Z,10.40
2018-03-24T04:16:48.470Z,10.73
2018-03-24T04:19:14.248Z,9.57
2018-03-24T04:21:40.544Z,9.73
2018-03-24T04:24:06.286Z,10.10
2018-03-24T04:26:32.080Z,11.27
2018-03-24T04:28:57.827Z,9.80
2018-03-24T04:31:23.589Z,9.87
2018-03-24T04:33:49.369Z,9.63
2018-03-24T04:36:15.116Z,11.30
2018-03-24T04:38:41.093Z,12.43
2018-03-24T04:41:06.857Z,11.63
2018-03-24T04:43:32.621Z,10.27
2018-03-24T04:45:58.382Z,10.27
2018-03-24T04:48:24.173Z,11.30
2018-03-24T04:50:49.929Z,11.27
2018-03-24T04:53:15.702Z,12.20
2018-03-24T04:55:41.843Z,12.20
2018-03-24T04:58:07.589Z,10.70
2018-03-24T05:00:33.344Z,11.57
2018-03-24T05:02:59.109Z,12.90
2018-03-24T05:05:24.882Z,11.53
2018-03-24T05:07:50.644Z,12.73
2018-03-24T05:10:16.417Z,11.87
2018-03-24T05:12:42.168Z,12.60
2018-03-24T05:15:07.925Z,10.87
2018-03-24T05:17:33.681Z,11.80
2018-03-24T05:19:59.928Z,12.30
2018-03-24T05:22:25.743Z,13.03
2018-03-24T05:24:51.482Z,10.87
2018-03-24T05:27:17.242Z,13.13
2018-03-24T05:29:43.025Z,12.73
2018-03-24T05:32:08.803Z,11.80
2018-03-24T05:34:34.549Z,12.10
2018-03-24T05:37:00.337Z,11.93
2018-03-24T05:39:26.081Z,11.40
2018-03-24T05:41:51.837Z,12.47
2018-03-24T05:44:17.611Z,12.53
2018-03-24T05:46:43.381Z,12.53
2018-03-24T05:49:09.246Z,12.83
2018-03-24T05:51:35.353Z,13.53
2018-03-24T05:54:01.101Z,13.20
2018-03-24T05:56:26.865Z,12.57
2018-03-24T05:58:52.633Z,13.40
2018-03-24T06:01:18.431Z,12.90
2018-03-24T06:03:44.180Z,11.87
2018-03-24T06:06:09.969Z,11.60
2018-03-24T06:08:35.769Z,10.47
2018-03-24T06:11:01.540Z,11.40
2018-03-24T06:13:27.320Z,12.53
2018-03-24T06:15:53.093Z,12.73
2018-03-24T06:18:19.537Z,12.07
2018-03-24T06:20:45.345Z,12.30
2018-03-24T06:23:11.107Z,13.53
2018-03-24T06:25:36.887Z,11.37
2018-03-24T06:28:02.666Z,12.43
2018-03-24T06:30:29.281Z,11.67
2018-03-24T06:32:55.065Z,11.70
2018-03-24T06:35:21.235Z,13.27
2018-03-24T06:37:47.067Z,13.37
2018-03-24T06:40:12.864Z,11.77
2018-03-24T06:42:38.608Z,13.20
2018-03-24T06:45:04.349Z,12.90
2018-03-24T06:47:30.136Z,13.10
2018-03-24T06:49:55.880Z,12.93
2018-03-24T06:52:21.631Z,12.80
2018-03-24T06:54:47.661Z,13.30
2018-03-24T06:57:13.438Z,13.40
2018-03-24T06:59:39.204Z,13.53
2018-03-24T07:02:04.961Z,16.03
2018-03-24T07:04:30.733Z,12.70
2018-03-24T07:06:56.497Z,12.80
2018-03-24T07:09:22.265Z,15.10
2018-03-24T07:11:48.023Z,13.00
2018-03-24T07:14:13.805Z,14.77
2018-03-24T07:16:39.565Z,15.33
2018-03-24T07:19:05.729Z,14.83
2018-03-24T07:21:31.506Z,14.37
2018-03-24T07:23:57.265Z,13.73
2018-03-24T07:26:23.049Z,15.63
2018-03-24T07:28:48.821Z,16.67
2018-03-24T07:31:14.588Z,15.33
2018-03-24T07:33:40.397Z,13.20
2018-03-24T07:36:06.689Z,13.57
2018-03-24T07:38:32.473Z,13.80
2018-03-24T07:40:58.232Z,14.27
2018-03-24T07:43:24.051Z,15.73
2018-03-24T07:45:49.808Z,14.70
2018-03-24T07:48:15.560Z,13.73
2018-03-24T07:50:41.337Z,16.13
2018-03-24T07:53:07.088Z,15.17
2018-03-24T07:55:33.116Z,15.70
2018-03-24T07:57:58.892Z,12.93
2018-03-24T08:00:24.645Z,15.77
2018-03-24T08:02:50.413Z,13.90
2018-03-24T08:05:16.192Z,15.07
2018-03-24T08:07:41.929Z,16.03
2018-03-24T08:10:07.688Z,14.17
2018-03-24T08:12:33.432Z,15.43
2018-03-24T08:14:59.191Z,14.17
2018-03-24T08:17:24.964Z,13.30
2018-03-24T08:19:50.725Z,14.77
2018-03-24T08:22:16.488Z,15.80
2018-03-24T08:24:42.277Z,14.47
2018-03-24T08:27:08.553Z,15.50
2018-03-24T08:29:34.322Z,14.70
2018-03-24T08:32:00.101Z,15.10
2018-03-24T08:34:25.879Z,13.60
2018-03-24T08:36:51.651Z,14.10
2018-03-24T08:39:17.430Z,15.80
2018-03-24T08:41:43.194Z,15.37
2018-03-24T08:46:34.637Z,13.00
2018-03-24T08:49:00.428Z,14.73
2018-03-24T08:51:26.327Z,16.60
2018-03-24T08:53:52.105Z,16.90
2018-03-24T08:56:17.853Z,14.13
2018-03-24T09:01:09.696Z,14.23
2018-03-24T09:03:35.439Z,15.10
2018-03-24T09:06:01.195Z,16.23
2018-03-24T09:10:52.666Z,16.35
2018-03-24T09:13:18.433Z,16.43
2018-03-24T09:15:44.229Z,16.45
2018-03-24T09:20:35.701Z,19.17
2018-03-24T09:23:01.486Z,18.40
2018-03-24T09:27:53.403Z,18.05
2018-03-24T09:30:19.204Z,19.20
2018-03-24T09:32:44.957Z,18.33
2018-03-24T09:35:10.725Z,18.87
2018-03-24T09:37:36.541Z,18.70
2018-03-24T09:40:02.307Z,17.00
2018-03-24T09:42:28.074Z,18.50
2018-03-24T09:44:53.847Z,20.50
2018-03-24T09:47:19.605Z,19.73
2018-03-24T09:49:45.353Z,17.90
2018-03-24T09:52:11.396Z,16.70
2018-03-24T09:54:37.140Z,18.93
2018-03-24T09:57:02.901Z,21.67
2018-03-24T10:01:54.347Z,21.13
2018-03-24T10:04:20.097Z,17.80
2018-03-24T10:06:45.869Z,21.60
2018-03-24T10:09:12.017Z,19.43
2018-03-24T10:11:37.778Z,20.95
2018-03-24T10:14:03.547Z,23.00
2018-03-24T10:18:54.979Z,20.10
2018-03-24T10:24:34.133Z,22.30
2018-03-24T10:26:59.909Z,20.20
2018-03-24T10:29:26.039Z,23.50
2018-03-24T10:31:51.813Z,22.57
2018-03-24T10:34:17.565Z,22.60
2018-03-24T10:36:43.324Z,22.73
2018-03-24T10:39:09.113Z,21.87
2018-03-24T10:41:34.897Z,24.90
2018-03-24T10:44:00.669Z,21.73
2018-03-24T10:46:26.454Z,26.53
2018-03-24T10:48:52.219Z,25.60
2018-03-24T10:51:17.965Z,21.10
2018-03-24T10:56:09.769Z,22.30
2018-03-24T10:58:35.509Z,22.37
2018-03-24T11:01:03.090Z,24.73
2018-03-24T11:03:28.874Z,22.85
2018-03-24T11:10:46.034Z,21.20
2018-03-24T11:13:11.829Z,21.85
2018-03-24T11:15:37.606Z,24.13
2018-03-24T11:18:03.382Z,21.90
2018-03-24T11:20:29.148Z,26.10
2018-03-24T11:22:55.237Z,24.93
2018-03-24T11:25:20.989Z,26.50
2018-03-24T11:27:46.774Z,22.70
2018-03-24T11:30:12.565Z,21.47
2018-03-24T11:32:38.329Z,26.87
2018-03-24T11:35:04.117Z,22.23
2018-03-24T11:37:29.887Z,26.20
2018-03-24T11:39:55.651Z,22.30
2018-03-24T11:42:21.415Z,24.80
2018-03-24T11:44:47.178Z,27.53
2018-03-24T11:47:12.961Z,23.03
2018-03-24T11:49:38.746Z,26.33
2018-03-24T11:52:04.853Z,26.20
2018-03-24T11:54:42.865Z,24.57
2018-03-24T11:57:08.622Z,22.33
2018-03-24T11:59:34.634Z,24.17
2018-03-24T12:02:07.349Z,25.20
2018-03-24T12:04:33.099Z,25.50
2018-03-24T12:06:59.178Z,25.77
2018-03-24T12:09:25.021Z,27.40
2018-03-24T12:11:50.767Z,23.60
2018-03-24T12:14:16.541Z,24.90
2018-03-24T12:16:42.292Z,27.97
2018-03-24T12:19:08.048Z,26.73
2018-03-24T12:21:33.835Z,24.80
2018-03-24T12:23:59.853Z,28.43
2018-03-24T12:26:25.635Z,23.60
2018-03-24T12:28:51.405Z,27.73
2018-03-24T12:31:17.153Z,23.35
2018-03-24T12:33:42.929Z,25.30
2018-03-24T12:36:08.686Z,24.60
2018-03-24T12:41:00.110Z,27.03
2018-03-24T12:43:25.857Z,23.20
2018-03-24T12:45:51.616Z,25.17
2018-03-24T12:48:17.421Z,25.23
2018-03-24T12:50:43.209Z,21.80
2018-03-24T13:00:26.294Z,22.37
2018-03-24T13:02:52.085Z,21.77
2018-03-24T13:05:17.829Z,24.30
2018-03-24T13:07:43.581Z,20.37
2018-03-24T13:10:09.454Z,23.17
2018-03-24T13:12:35.229Z,20.37
2018-03-24T13:15:00.976Z,21.77
2018-03-24T13:17:26.743Z,19.57
2018-03-24T13:19:52.501Z,21.57
2018-03-24T13:22:18.257Z,19.30
2018-03-24T13:24:44.018Z,22.53
2018-03-24T13:27:10.122Z,27.40
2018-03-24T13:29:35.897Z,25.03
2018-03-24T13:32:01.667Z,25.30
2018-03-24T13:34:27.434Z,21.93
2018-03-24T13:36:53.224Z,24.73
2018-03-24T13:39:19.004Z,23.47
2018-03-24T13:41:44.766Z,22.50
2018-03-24T13:44:10.521Z,21.80
2018-03-24T13:46:36.289Z,19.70
2018-03-24T13:49:02.032Z,17.03
2018-03-24T13:51:28.223Z,17.10
2018-03-24T13:53:53.988Z,17.23
2018-03-24T13:56:19.758Z,17.70
2018-03-24T13:58:45.509Z,17.77
2018-03-24T14:01:11.296Z,16.87
2018-03-24T14:03:37.063Z,16.03
2018-03-24T14:06:02.828Z,15.83
2018-03-24T14:08:28.576Z,16.37
2018-03-24T14:10:54.348Z,17.93
2018-03-24T14:13:20.113Z,19.37
2018-03-24T14:15:45.876Z,14.83
2018-03-24T14:18:11.640Z,15.67
2018-03-24T14:20:37.422Z,15.93
2018-03-24T14:23:03.173Z,17.20
2018-03-24T14:25:29.266Z,16.80
2018-03-24T14:27:55.037Z,16.70
2018-03-24T14:30:20.796Z,15.40
2018-03-24T14:32:46.542Z,16.30
2018-03-24T14:35:12.333Z,16.80
2018-03-24T14:37:38.101Z,17.13
2018-03-24T14:40:03.878Z,18.73
2018-03-24T14:42:29.621Z,17.03
2018-03-24T14:44:55.369Z,19.17
2018-03-24T14:47:21.118Z,20.00
2018-03-24T14:49:46.873Z,21.27
2018-03-24T14:52:12.955Z,17.90
2018-03-24T14:54:38.719Z,18.47
2018-03-24T14:57:04.485Z,19.37
2018-03-24T14:59:30.236Z,19.07
2018-03-24T15:01:55.991Z,19.50
2018-03-24T15:04:21.758Z,17.67
2018-03-24T15:06:47.557Z,17.97
2018-03-24T15:09:13.791Z,19.77
2018-03-24T15:11:39.552Z,18.77
2018-03-24T15:14:05.344Z,18.23
2018-03-24T15:16:31.109Z,13.93
2018-03-24T15:18:56.902Z,14.67
2018-03-24T15:21:22.663Z,14.90
2018-03-24T15:23:48.836Z,16.50
2018-03-24T15:26:14.601Z,14.50
2018-03-24T15:28:53.245Z,13.17
2018-03-24T15:31:31.301Z,14.00
2018-03-24T15:34:09.373Z,15.47
2018-03-24T15:36:41.594Z,14.27
2018-03-24T15:39:07.382Z,14.27
2018-03-24T15:41:33.161Z,12.60
2018-03-24T15:43:58.945Z,13.03
2018-03-24T15:46:24.726Z,14.70
2018-03-24T15:48:50.490Z,14.13
2018-03-24T15:51:16.336Z,12.20
2018-03-24T15:53:42.505Z,13.43
2018-03-24T15:56:08.351Z,13.80
2018-03-24T15:58:34.117Z,14.93
2018-03-24T16:00:59.956Z,10.87
2018-03-24T16:03:25.775Z,12.73
2018-03-24T16:05:51.557Z,11.50
2018-03-24T16:08:17.322Z,11.93
2018-03-24T16:10:43.077Z,14.60
2018-03-24T16:21:46.825Z,13.07
2018-03-24T16:24:12.589Z,13.13
2018-03-24T16:26:38.602Z,13.90
2018-03-24T16:29:04.385Z,12.50
2018-03-24T16:31:30.137Z,11.93
2018-03-24T16:33:55.901Z,12.93
2018-03-24T16:36:21.673Z,12.80
2018-03-24T16:38:47.436Z,13.37
2018-03-24T16:41:13.177Z,13.20
2018-03-24T16:43:38.960Z,14.23
2018-03-24T16:46:04.726Z,14.50
2018-03-24T16:48:30.471Z,14.73
2018-03-24T16:50:56.257Z,13.97
2018-03-24T16:53:22.018Z,13.80
2018-03-24T16:55:48.207Z,14.27
2018-03-24T16:58:13.982Z,15.73
2018-03-24T17:00:39.722Z,15.23
2018-03-24T17:03:05.484Z,12.90
2018-03-24T17:05:31.256Z,13.30
2018-03-24T17:07:57.017Z,14.60
2018-03-24T17:10:22.775Z,14.73
2018-03-24T17:12:48.546Z,15.43
2018-03-24T17:15:14.321Z,18.30
2018-03-24T17:17:40.109Z,17.73
2018-03-24T17:20:05.881Z,18.00
2018-03-24T17:22:31.667Z,14.03
2018-03-24T17:24:57.460Z,11.70
2018-03-24T17:27:23.668Z,13.27
2018-03-24T17:29:49.425Z,13.80
2018-03-24T17:32:15.188Z,14.70
2018-03-24T17:34:40.945Z,14.30
2018-03-24T17:37:06.716Z,17.83
2018-03-24T17:39:32.466Z,15.70
2018-03-24T17:41:58.233Z,16.63
2018-03-24T17:44:24.139Z,16.10
2018-03-24T17:46:49.797Z,19.30
2018-03-24T17:49:15.529Z,15.27
2018-03-24T17:51:41.317Z,14.30
2018-03-24T17:54:07.089Z,15.40
2018-03-24T17:56:33.281Z,18.90
2018-03-24T17:58:59.056Z,16.03
2018-03-24T18:01:24.816Z,16.50
2018-03-24T18:03:50.553Z,16.53
2018-03-24T18:06:16.317Z,15.40
2018-03-24T18:08:42.065Z,15.70
2018-03-24T18:11:07.837Z,15.03
2018-03-24T18:13:33.581Z,13.63
2018-03-24T18:15:59.318Z,17.30
2018-03-24T18:18:25.102Z,16.33
2018-03-24T18:20:51.090Z,15.77
2018-03-24T18:23:16.865Z,15.70
2018-03-24T18:25:42.658Z,15.97
2018-03-24T18:28:09.028Z,13.70
2018-03-24T18:30:34.793Z,12.93
2018-03-24T18:33:00.631Z,14.57
2018-03-24T18:35:26.329Z,12.87
2018-03-24T18:37:52.084Z,14.27
2018-03-24T18:40:17.860Z,16.07
2018-03-24T18:42:43.618Z,16.00
2018-03-24T18:45:09.373Z,16.07
2018-03-24T18:47:35.136Z,18.13
2018-03-24T18:50:00.885Z,18.13
2018-03-24T18:52:26.661Z,17.50
2018-03-24T18:54:52.455Z,14.77
2018-03-24T18:57:18.632Z,13.40
2018-03-24T18:59:44.399Z,17.27
2018-03-24T19:02:10.451Z,14.60
2018-03-24T19:04:36.249Z,14.70
2018-03-24T19:07:02.001Z,16.37
2018-03-24T19:09:27.812Z,14.87
2018-03-24T19:11:53.588Z,15.67
2018-03-24T19:14:19.352Z,16.20
2018-03-24T19:16:45.113Z,20.30
2018-03-24T19:19:10.860Z,20.57
2018-03-24T19:21:36.606Z,17.33
2018-03-24T19:24:02.801Z,13.83
2018-03-24T19:26:28.574Z,15.03
2018-03-24T19:28:54.340Z,13.77
2018-03-24T19:31:20.105Z,15.67
2018-03-24T19:33:45.881Z,15.57
2018-03-24T19:36:11.674Z,13.13
2018-03-24T19:38:37.437Z,11.67
2018-03-24T19:41:03.186Z,13.87
2018-03-24T19:43:28.936Z,11.70
2018-03-24T19:45:54.696Z,11.90
2018-03-24T19:48:20.429Z,12.57
2018-03-24T19:50:46.160Z,13.73
2018-03-24T19:53:12.379Z,12.07
2018-03-24T19:55:38.133Z,14.73
2018-03-24T19:58:03.904Z,13.47
2018-03-24T20:00:29.714Z,15.07
2018-03-24T20:02:55.449Z,14.07
2018-03-24T20:05:21.189Z,13.37
2018-03-24T20:07:46.964Z,14.50
2018-03-24T20:10:12.721Z,14.20
2018-03-24T20:12:38.479Z,15.90
2018-03-24T20:15:04.246Z,14.00
2018-03-24T20:17:30.017Z,14.97
2018-03-24T20:19:55.772Z,14.30
2018-03-24T20:22:21.565Z,15.13
2018-03-24T20:24:47.714Z,17.37
2018-03-24T20:27:13.457Z,15.03
2018-03-24T20:29:39.242Z,20.60
2018-03-24T20:32:05.012Z,15.97
2018-03-24T20:34:30.856Z,14.70
2018-03-24T20:36:56.642Z,15.63
2018-03-24T20:39:22.386Z,14.10
2018-03-24T20:41:48.188Z,18.10
2018-03-24T20:44:13.949Z,16.13
2018-03-24T20:46:39.704Z,15.73
2018-03-24T20:49:05.480Z,15.10
2018-03-24T20:51:31.238Z,14.13
2018-03-24T20:53:56.989Z,13.73
2018-03-24T20:56:23.469Z,15.00
2018-03-24T20:58:49.230Z,15.50
2018-03-24T21:01:14.992Z,15.83
2018-03-24T21:03:40.750Z,16.97
2018-03-24T21:06:06.521Z,15.43
2018-03-24T21:08:32.271Z,16.43
2018-03-24T21:10:58.029Z,17.43
2018-03-24T21:13:23.780Z,16.63
2018-03-24T21:15:49.536Z,15.43
2018-03-24T21:18:15.286Z,16.93
2018-03-24T21:20:41.460Z,15.60
2018-03-24T21:23:07.214Z,13.80
2018-03-24T21:25:32.981Z,13.90
2018-03-24T21:27:58.713Z,14.30
2018-03-24T21:30:24.465Z,13.63
2018-03-24T21:32:50.237Z,14.40
2018-03-24T21:35:15.986Z,13.40
2018-03-24T21:37:42.169Z,14.17
2018-03-24T21:40:08.001Z,13.23
2018-03-24T21:42:33.749Z,14.77
2018-03-24T21:44:59.527Z,15.13
2018-03-24T21:47:25.297Z,13.60
2018-03-24T21:49:51.060Z,13.50
2018-03-24T21:52:16.842Z,14.07
2018-03-24T21:54:42.609Z,13.83
2018-03-24T21:57:08.357Z,15.00
2018-03-24T21:59:34.114Z,13.33
2018-03-24T22:02:00.535Z,15.60
2018-03-24T22:04:26.293Z,14.43
2018-03-24T22:06:52.074Z,12.67
2018-03-24T22:09:17.832Z,14.20
2018-03-24T22:11:43.582Z,15.33
2018-03-24T22:14:09.350Z,11.97
2018-03-24T22:16:35.101Z,13.30
2018-03-24T22:19:00.891Z,14.03
2018-03-24T22:21:26.678Z,12.73
2018-03-24T22:23:52.437Z,13.63
2018-03-24T22:26:18.184Z,12.30
2018-03-24T22:28:44.391Z,11.47
2018-03-24T22:31:10.226Z,12.17
2018-03-24T22:33:35.970Z,11.63
2018-03-24T22:36:01.740Z,12.17
2018-03-24T22:38:27.506Z,11.20
2018-03-24T22:40:53.265Z,9.93
2018-03-24T22:43:19.037Z,12.43
2018-03-24T22:45:44.791Z,10.77
2018-03-24T22:48:10.549Z,12.20
2018-03-24T22:50:36.338Z,11.27
2018-03-24T22:53:02.080Z,11.90
2018-03-24T22:55:28.363Z,12.20
2018-03-24T22:57:54.129Z,16.10
2018-03-24T23:00:19.889Z,12.10
2018-03-24T23:02:45.654Z,11.87
2018-03-24T23:05:11.416Z,11.33
2018-03-24T23:07:37.231Z,12.37
2018-03-24T23:10:03.037Z,12.27
2018-03-24T23:12:28.782Z,11.67
2018-03-24T23:14:54.682Z,11.57
2018-03-24T23:20:04.626Z,11.63
2018-03-24T23:22:30.724Z,11.90
2018-03-24T23:24:56.491Z,13.80
2018-03-24T23:27:22.244Z,11.63
2018-03-24T23:29:47.985Z,10.73
2018-03-24T23:32:13.721Z,12.47
2018-03-24T23:34:39.482Z,12.67
2018-03-24T23:37:05.244Z,12.90
2018-03-24T23:39:30.997Z,10.90
2018-03-24T23:41:56.769Z,12.63
2018-03-24T23:44:22.508Z,11.17
2018-03-24T23:46:48.280Z,10.77
2018-03-24T23:49:14.041Z,13.10
2018-03-24T23:51:39.789Z,12.10
2018-03-24T23:54:05.777Z,12.80
2018-03-24T23:56:31.552Z,15.00
2018-03-24T23:58:57.305Z,13.97
